sensor_id;sensor_type;location;lat;lon;timestamp;P1;durP1;ratioP1;P2;durP2;ratioP2
21825;SDS011;11075;47.944;11.776;2022-07-10T00:00:42;2.97;;;2.05;;
21825;SDS011;11075;47.944;11.776;2022-07-10T00:03:09;6.28;;;1.80;;
21825;SDS011;11075;47.944;11.776;2022-07-10T00:05:36;4.47;;;1.85;;
21825;SDS011;11075;47.944;11.776;2022-07-10T00:08:03;5.05;;;2.20;;
21825;SDS011;11075;47.944;11.776;2022-07-10T00:10:30;3.83;;;1.77;;
21825;SDS011;11075;47.944;11.776;2022-07-10T00:12:58;4.85;;;2.35;;
21825;SDS011;11075;47.944;11.776;2022-07-10T00:15:25;5.90;;;2.10;;
21825;SDS011;11075;47.944;11.776;2022-07-10T00:17:52;5.63;;;2.17;;
21825;SDS011;11075;47.944;11.776;2022-07-10T00:20:19;3.25;;;2.00;;
21825;SDS011;11075;47.944;11.776;2022-07-10T00:22:46;2.35;;;2.15;;
21825;SDS011;11075;47.944;11.776;2022-07-10T00:25:13;3.88;;;2.33;;
21825;SDS011;11075;47.944;11.776;2022-07-10T00:27:41;5.45;;;2.55;;
21825;SDS011;11075;47.944;11.776;2022-07-10T00:30:09;4.13;;;2.47;;
21825;SDS011;11075;47.944;11.776;2022-07-10T00:32:38;3.35;;;2.25;;
21825;SDS011;11075;47.944;11.776;2022-07-10T00:35:05;3.53;;;2.20;;
21825;SDS011;11075;47.944;11.776;2022-07-10T00:37:33;2.53;;;2.05;;
21825;SDS011;11075;47.944;11.776;2022-07-10T00:40:00;2.33;;;2.13;;
21825;SDS011;11075;47.944;11.776;2022-07-10T00:42:27;5.00;;;2.28;;
21825;SDS011;11075;47.944;11.776;2022-07-10T00:44:54;5.18;;;2.40;;
21825;SDS011;11075;47.944;11.776;2022-07-10T00:47:21;4.07;;;2.08;;
21825;SDS011;11075;47.944;11.776;2022-07-10T00:49:48;2.65;;;2.30;;
21825;SDS011;11075;47.944;11.776;2022-07-10T00:52:16;4.15;;;2.33;;
21825;SDS011;11075;47.944;11.776;2022-07-10T00:54:45;4.10;;;2.85;;
21825;SDS011;11075;47.944;11.776;2022-07-10T00:57:14;2.80;;;2.60;;
21825;SDS011;11075;47.944;11.776;2022-07-10T00:59:42;4.50;;;2.58;;
21825;SDS011;11075;47.944;11.776;2022-07-10T01:02:11;3.30;;;2.78;;
21825;SDS011;11075;47.944;11.776;2022-07-10T01:04:39;10.70;;;3.13;;
21825;SDS011;11075;47.944;11.776;2022-07-10T01:07:06;7.20;;;3.50;;
21825;SDS011;11075;47.944;11.776;2022-07-10T01:09:33;3.08;;;2.85;;
21825;SDS011;11075;47.944;11.776;2022-07-10T01:12:01;7.57;;;4.72;;
21825;SDS011;11075;47.944;11.776;2022-07-10T01:14:31;6.10;;;3.92;;
21825;SDS011;11075;47.944;11.776;2022-07-10T01:16:58;9.40;;;4.40;;
21825;SDS011;11075;47.944;11.776;2022-07-10T01:19:25;4.38;;;3.97;;
21825;SDS011;11075;47.944;11.776;2022-07-10T01:21:52;4.88;;;4.22;;
21825;SDS011;11075;47.944;11.776;2022-07-10T01:24:19;5.05;;;4.13;;
21825;SDS011;11075;47.944;11.776;2022-07-10T01:26:46;7.45;;;4.50;;
21825;SDS011;11075;47.944;11.776;2022-07-10T01:29:14;5.90;;;4.65;;
21825;SDS011;11075;47.944;11.776;2022-07-10T01:31:41;7.25;;;4.82;;
21825;SDS011;11075;47.944;11.776;2022-07-10T01:34:09;5.60;;;5.10;;
21825;SDS011;11075;47.944;11.776;2022-07-10T01:36:36;6.65;;;5.22;;
21825;SDS011;11075;47.944;11.776;2022-07-10T01:39:04;6.80;;;5.53;;
21825;SDS011;11075;47.944;11.776;2022-07-10T01:41:32;6.13;;;5.38;;
21825;SDS011;11075;47.944;11.776;2022-07-10T01:44:00;11.07;;;5.82;;
21825;SDS011;11075;47.944;11.776;2022-07-10T01:46:27;6.70;;;6.10;;
21825;SDS011;11075;47.944;11.776;2022-07-10T01:48:54;7.97;;;6.30;;
21825;SDS011;11075;47.944;11.776;2022-07-10T01:51:21;7.13;;;6.20;;
21825;SDS011;11075;47.944;11.776;2022-07-10T01:53:48;7.00;;;6.00;;
21825;SDS011;11075;47.944;11.776;2022-07-10T01:56:15;11.90;;;6.97;;
21825;SDS011;11075;47.944;11.776;2022-07-10T01:58:42;8.68;;;6.75;;
21825;SDS011;11075;47.944;11.776;2022-07-10T02:01:09;8.18;;;6.93;;
21825;SDS011;11075;47.944;11.776;2022-07-10T02:03:37;9.35;;;7.15;;
21825;SDS011;11075;47.944;11.776;2022-07-10T02:06:23;7.85;;;7.03;;
21825;SDS011;11075;47.944;11.776;2022-07-10T02:08:50;7.30;;;6.60;;
21825;SDS011;11075;47.944;11.776;2022-07-10T02:11:17;7.80;;;7.00;;
21825;SDS011;11075;47.944;11.776;2022-07-10T02:13:44;13.23;;;7.53;;
21825;SDS011;11075;47.944;11.776;2022-07-10T02:16:12;8.05;;;7.18;;
21825;SDS011;11075;47.944;11.776;2022-07-10T02:18:39;8.43;;;7.53;;
21825;SDS011;11075;47.944;11.776;2022-07-10T02:21:07;7.93;;;7.13;;
21825;SDS011;11075;47.944;11.776;2022-07-10T02:23:34;8.63;;;7.70;;
21825;SDS011;11075;47.944;11.776;2022-07-10T02:26:02;8.13;;;7.38;;
21825;SDS011;11075;47.944;11.776;2022-07-10T02:28:29;9.13;;;7.43;;
21825;SDS011;11075;47.944;11.776;2022-07-10T02:30:56;8.60;;;7.70;;
21825;SDS011;11075;47.944;11.776;2022-07-10T02:33:23;10.95;;;7.57;;
21825;SDS011;11075;47.944;11.776;2022-07-10T02:35:51;8.90;;;7.78;;
21825;SDS011;11075;47.944;11.776;2022-07-10T02:38:18;8.43;;;7.47;;
21825;SDS011;11075;47.944;11.776;2022-07-10T02:40:45;8.63;;;7.25;;
21825;SDS011;11075;47.944;11.776;2022-07-10T02:43:14;7.47;;;6.72;;
21825;SDS011;11075;47.944;11.776;2022-07-10T02:45:41;7.70;;;6.97;;
21825;SDS011;11075;47.944;11.776;2022-07-10T02:48:13;11.50;;;7.25;;
21825;SDS011;11075;47.944;11.776;2022-07-10T02:50:41;8.18;;;7.15;;
21825;SDS011;11075;47.944;11.776;2022-07-10T02:53:08;7.75;;;7.03;;
21825;SDS011;11075;47.944;11.776;2022-07-10T02:55:34;9.57;;;7.35;;
21825;SDS011;11075;47.944;11.776;2022-07-10T02:58:01;8.60;;;7.70;;
21825;SDS011;11075;47.944;11.776;2022-07-10T03:00:30;8.82;;;7.70;;
21825;SDS011;11075;47.944;11.776;2022-07-10T03:02:57;8.50;;;7.63;;
21825;SDS011;11075;47.944;11.776;2022-07-10T03:05:24;8.70;;;7.50;;
21825;SDS011;11075;47.944;11.776;2022-07-10T03:07:50;8.70;;;7.82;;
21825;SDS011;11075;47.944;11.776;2022-07-10T03:10:17;10.02;;;8.38;;
21825;SDS011;11075;47.944;11.776;2022-07-10T03:12:44;9.80;;;8.20;;
21825;SDS011;11075;47.944;11.776;2022-07-10T03:15:12;9.70;;;8.20;;
21825;SDS011;11075;47.944;11.776;2022-07-10T03:17:39;10.40;;;7.95;;
21825;SDS011;11075;47.944;11.776;2022-07-10T03:20:06;11.30;;;7.93;;
21825;SDS011;11075;47.944;11.776;2022-07-10T03:22:35;9.18;;;7.60;;
21825;SDS011;11075;47.944;11.776;2022-07-10T03:25:02;9.57;;;8.23;;
21825;SDS011;11075;47.944;11.776;2022-07-10T03:27:30;10.20;;;8.48;;
21825;SDS011;11075;47.944;11.776;2022-07-10T03:29:57;10.75;;;9.63;;
21825;SDS011;11075;47.944;11.776;2022-07-10T03:32:24;9.55;;;8.30;;
21825;SDS011;11075;47.944;11.776;2022-07-10T03:34:51;12.00;;;8.57;;
21825;SDS011;11075;47.944;11.776;2022-07-10T03:37:17;9.45;;;8.40;;
21825;SDS011;11075;47.944;11.776;2022-07-10T03:39:44;12.30;;;8.85;;
21825;SDS011;11075;47.944;11.776;2022-07-10T03:42:11;9.52;;;8.45;;
21825;SDS011;11075;47.944;11.776;2022-07-10T03:44:38;9.52;;;8.43;;
21825;SDS011;11075;47.944;11.776;2022-07-10T03:47:05;10.43;;;8.55;;
21825;SDS011;11075;47.944;11.776;2022-07-10T03:49:32;9.15;;;8.25;;
21825;SDS011;11075;47.944;11.776;2022-07-10T03:51:59;10.38;;;9.15;;
21825;SDS011;11075;47.944;11.776;2022-07-10T03:54:27;12.43;;;9.07;;
21825;SDS011;11075;47.944;11.776;2022-07-10T03:56:56;10.30;;;9.20;;
21825;SDS011;11075;47.944;11.776;2022-07-10T03:59:44;10.70;;;8.93;;
21825;SDS011;11075;47.944;11.776;2022-07-10T04:02:12;9.75;;;8.32;;
21825;SDS011;11075;47.944;11.776;2022-07-10T04:04:39;10.05;;;9.05;;
21825;SDS011;11075;47.944;11.776;2022-07-10T04:07:06;9.90;;;8.82;;
21825;SDS011;11075;47.944;11.776;2022-07-10T04:09:33;9.93;;;8.93;;
21825;SDS011;11075;47.944;11.776;2022-07-10T04:12:00;9.65;;;8.65;;
21825;SDS011;11075;47.944;11.776;2022-07-10T04:14:27;11.07;;;8.38;;
21825;SDS011;11075;47.944;11.776;2022-07-10T04:16:54;9.25;;;8.35;;
21825;SDS011;11075;47.944;11.776;2022-07-10T04:19:21;9.70;;;8.65;;
21825;SDS011;11075;47.944;11.776;2022-07-10T04:21:48;10.60;;;8.35;;
21825;SDS011;11075;47.944;11.776;2022-07-10T04:24:15;13.48;;;9.50;;
21825;SDS011;11075;47.944;11.776;2022-07-10T04:26:43;11.32;;;9.10;;
21825;SDS011;11075;47.944;11.776;2022-07-10T04:29:10;11.30;;;8.77;;
21825;SDS011;11075;47.944;11.776;2022-07-10T04:31:37;10.35;;;9.25;;
21825;SDS011;11075;47.944;11.776;2022-07-10T04:34:04;13.07;;;10.15;;
21825;SDS011;11075;47.944;11.776;2022-07-10T04:36:31;10.02;;;9.02;;
21825;SDS011;11075;47.944;11.776;2022-07-10T04:38:58;10.73;;;8.35;;
21825;SDS011;11075;47.944;11.776;2022-07-10T04:41:25;11.73;;;9.77;;
21825;SDS011;11075;47.944;11.776;2022-07-10T04:43:51;10.40;;;9.27;;
21825;SDS011;11075;47.944;11.776;2022-07-10T04:46:18;10.05;;;9.07;;
21825;SDS011;11075;47.944;11.776;2022-07-10T04:48:45;9.95;;;9.05;;
21825;SDS011;11075;47.944;11.776;2022-07-10T04:51:12;9.70;;;8.23;;
21825;SDS011;11075;47.944;11.776;2022-07-10T04:53:39;10.43;;;9.43;;
21825;SDS011;11075;47.944;11.776;2022-07-10T04:56:06;10.07;;;9.07;;
21825;SDS011;11075;47.944;11.776;2022-07-10T04:58:33;8.88;;;8.00;;
21825;SDS011;11075;47.944;11.776;2022-07-10T05:01:01;9.40;;;8.32;;
21825;SDS011;11075;47.944;11.776;2022-07-10T05:03:28;9.93;;;8.05;;
21825;SDS011;11075;47.944;11.776;2022-07-10T05:05:55;9.70;;;8.73;;
21825;SDS011;11075;47.944;11.776;2022-07-10T05:08:22;9.75;;;8.77;;
21825;SDS011;11075;47.944;11.776;2022-07-10T05:10:49;9.02;;;8.02;;
21825;SDS011;11075;47.944;11.776;2022-07-10T05:13:16;9.18;;;8.25;;
21825;SDS011;11075;47.944;11.776;2022-07-10T05:15:44;9.00;;;7.32;;
21825;SDS011;11075;47.944;11.776;2022-07-10T05:18:12;8.88;;;8.00;;
21825;SDS011;11075;47.944;11.776;2022-07-10T05:20:39;10.32;;;7.88;;
21825;SDS011;11075;47.944;11.776;2022-07-10T05:23:09;8.82;;;7.93;;
21825;SDS011;11075;47.944;11.776;2022-07-10T05:25:37;8.73;;;7.93;;
21825;SDS011;11075;47.944;11.776;2022-07-10T05:28:05;8.73;;;7.93;;
21825;SDS011;11075;47.944;11.776;2022-07-10T05:30:32;9.13;;;7.45;;
21825;SDS011;11075;47.944;11.776;2022-07-10T05:32:59;7.82;;;7.03;;
21825;SDS011;11075;47.944;11.776;2022-07-10T05:35:27;8.18;;;7.32;;
21825;SDS011;11075;47.944;11.776;2022-07-10T05:37:53;8.48;;;7.68;;
21825;SDS011;11075;47.944;11.776;2022-07-10T05:40:20;8.10;;;7.30;;
21825;SDS011;11075;47.944;11.776;2022-07-10T05:42:47;8.30;;;7.18;;
21825;SDS011;11075;47.944;11.776;2022-07-10T05:45:14;7.97;;;7.07;;
21825;SDS011;11075;47.944;11.776;2022-07-10T05:47:41;8.80;;;7.35;;
21825;SDS011;11075;47.944;11.776;2022-07-10T05:50:08;7.85;;;7.05;;
21825;SDS011;11075;47.944;11.776;2022-07-10T05:52:35;7.30;;;6.60;;
21825;SDS011;11075;47.944;11.776;2022-07-10T05:55:03;6.85;;;6.18;;
21825;SDS011;11075;47.944;11.776;2022-07-10T05:57:30;7.22;;;6.50;;
21825;SDS011;11075;47.944;11.776;2022-07-10T05:59:57;8.27;;;6.60;;
21825;SDS011;11075;47.944;11.776;2022-07-10T06:02:25;7.15;;;6.55;;
21825;SDS011;11075;47.944;11.776;2022-07-10T06:04:52;9.00;;;6.70;;
21825;SDS011;11075;47.944;11.776;2022-07-10T06:07:19;7.75;;;6.75;;
21825;SDS011;11075;47.944;11.776;2022-07-10T06:09:45;7.93;;;6.68;;
21825;SDS011;11075;47.944;11.776;2022-07-10T06:12:12;7.80;;;6.82;;
21825;SDS011;11075;47.944;11.776;2022-07-10T06:14:41;8.57;;;7.55;;
21825;SDS011;11075;47.944;11.776;2022-07-10T06:17:08;9.43;;;7.50;;
21825;SDS011;11075;47.944;11.776;2022-07-10T06:19:35;10.23;;;7.80;;
21825;SDS011;11075;47.944;11.776;2022-07-10T06:22:02;8.55;;;7.68;;
21825;SDS011;11075;47.944;11.776;2022-07-10T06:24:48;11.40;;;7.55;;
21825;SDS011;11075;47.944;11.776;2022-07-10T06:27:15;8.85;;;7.18;;
21825;SDS011;11075;47.944;11.776;2022-07-10T06:29:42;9.30;;;7.70;;
21825;SDS011;11075;47.944;11.776;2022-07-10T06:32:08;8.02;;;7.20;;
21825;SDS011;11075;47.944;11.776;2022-07-10T06:34:35;7.50;;;6.80;;
21825;SDS011;11075;47.944;11.776;2022-07-10T06:37:02;7.68;;;6.88;;
21825;SDS011;11075;47.944;11.776;2022-07-10T06:39:31;7.57;;;6.85;;
21825;SDS011;11075;47.944;11.776;2022-07-10T06:42:05;8.38;;;7.07;;
21825;SDS011;11075;47.944;11.776;2022-07-10T06:44:39;8.75;;;7.30;;
21825;SDS011;11075;47.944;11.776;2022-07-10T06:47:06;8.50;;;7.55;;
21825;SDS011;11075;47.944;11.776;2022-07-10T06:49:52;8.82;;;7.63;;
21825;SDS011;11075;47.944;11.776;2022-07-10T06:52:20;9.45;;;7.70;;
21825;SDS011;11075;47.944;11.776;2022-07-10T06:54:48;9.55;;;7.15;;
21825;SDS011;11075;47.944;11.776;2022-07-10T06:57:15;10.05;;;7.93;;
21825;SDS011;11075;47.944;11.776;2022-07-10T06:59:44;9.18;;;6.75;;
21825;SDS011;11075;47.944;11.776;2022-07-10T07:02:11;7.05;;;6.35;;
21825;SDS011;11075;47.944;11.776;2022-07-10T07:04:38;12.70;;;6.50;;
21825;SDS011;11075;47.944;11.776;2022-07-10T07:07:05;7.45;;;5.50;;
21825;SDS011;11075;47.944;11.776;2022-07-10T07:09:32;8.32;;;6.28;;
21825;SDS011;11075;47.944;11.776;2022-07-10T07:11:59;7.13;;;6.43;;
21825;SDS011;11075;47.944;11.776;2022-07-10T07:14:26;8.07;;;5.40;;
21825;SDS011;11075;47.944;11.776;2022-07-10T07:17:00;6.95;;;5.40;;
21825;SDS011;11075;47.944;11.776;2022-07-10T07:19:32;5.63;;;4.90;;
21825;SDS011;11075;47.944;11.776;2022-07-10T07:22:20;6.03;;;5.43;;
21825;SDS011;11075;47.944;11.776;2022-07-10T07:25:06;8.30;;;5.65;;
21825;SDS011;11075;47.944;11.776;2022-07-10T07:27:35;6.35;;;4.85;;
21825;SDS011;11075;47.944;11.776;2022-07-10T07:30:04;8.40;;;5.32;;
21825;SDS011;11075;47.944;11.776;2022-07-10T07:32:33;5.95;;;5.13;;
21825;SDS011;11075;47.944;11.776;2022-07-10T07:35:00;5.55;;;5.05;;
21825;SDS011;11075;47.944;11.776;2022-07-10T07:37:45;5.90;;;5.05;;
21825;SDS011;11075;47.944;11.776;2022-07-10T07:40:15;4.60;;;4.13;;
21825;SDS011;11075;47.944;11.776;2022-07-10T07:42:46;4.75;;;4.25;;
21825;SDS011;11075;47.944;11.776;2022-07-10T07:45:13;4.65;;;4.20;;
21825;SDS011;11075;47.944;11.776;2022-07-10T07:47:47;7.72;;;4.47;;
21825;SDS011;11075;47.944;11.776;2022-07-10T07:50:15;4.68;;;3.88;;
21825;SDS011;11075;47.944;11.776;2022-07-10T07:52:45;4.75;;;4.30;;
21825;SDS011;11075;47.944;11.776;2022-07-10T07:55:13;5.88;;;3.95;;
21825;SDS011;11075;47.944;11.776;2022-07-10T07:57:42;4.93;;;4.43;;
21825;SDS011;11075;47.944;11.776;2022-07-10T08:00:09;5.50;;;5.00;;
21825;SDS011;11075;47.944;11.776;2022-07-10T08:02:37;5.50;;;5.00;;
21825;SDS011;11075;47.944;11.776;2022-07-10T08:05:05;4.65;;;4.22;;
21825;SDS011;11075;47.944;11.776;2022-07-10T08:07:43;6.03;;;4.50;;
21825;SDS011;11075;47.944;11.776;2022-07-10T08:10:13;15.93;;;4.20;;
21825;SDS011;11075;47.944;11.776;2022-07-10T08:12:42;6.07;;;4.35;;
21825;SDS011;11075;47.944;11.776;2022-07-10T08:15:10;5.90;;;4.18;;
21825;SDS011;11075;47.944;11.776;2022-07-10T08:17:38;4.55;;;4.13;;
21825;SDS011;11075;47.944;11.776;2022-07-10T08:20:06;5.97;;;4.45;;
21825;SDS011;11075;47.944;11.776;2022-07-10T08:22:37;4.53;;;3.92;;
21825;SDS011;11075;47.944;11.776;2022-07-10T08:25:04;4.25;;;3.85;;
21825;SDS011;11075;47.944;11.776;2022-07-10T08:27:32;4.93;;;4.45;;
21825;SDS011;11075;47.944;11.776;2022-07-10T08:29:58;8.10;;;5.13;;
21825;SDS011;11075;47.944;11.776;2022-07-10T08:32:25;5.43;;;4.28;;
21825;SDS011;11075;47.944;11.776;2022-07-10T08:34:53;7.53;;;4.57;;
21825;SDS011;11075;47.944;11.776;2022-07-10T08:37:20;6.13;;;5.45;;
21825;SDS011;11075;47.944;11.776;2022-07-10T08:39:47;5.60;;;5.03;;
21825;SDS011;11075;47.944;11.776;2022-07-10T08:42:15;8.18;;;4.70;;
21825;SDS011;11075;47.944;11.776;2022-07-10T08:44:42;4.78;;;3.45;;
21825;SDS011;11075;47.944;11.776;2022-07-10T08:47:09;7.18;;;3.42;;
21825;SDS011;11075;47.944;11.776;2022-07-10T08:49:38;5.47;;;3.15;;
21825;SDS011;11075;47.944;11.776;2022-07-10T08:52:20;7.47;;;3.60;;
21825;SDS011;11075;47.944;11.776;2022-07-10T08:54:49;5.28;;;3.63;;
21825;SDS011;11075;47.944;11.776;2022-07-10T08:57:16;5.47;;;3.20;;
21825;SDS011;11075;47.944;11.776;2022-07-10T08:59:44;4.07;;;2.88;;
21825;SDS011;11075;47.944;11.776;2022-07-10T09:02:11;2.65;;;2.45;;
21825;SDS011;11075;47.944;11.776;2022-07-10T09:04:38;3.65;;;2.72;;
21825;SDS011;11075;47.944;11.776;2022-07-10T09:07:05;4.38;;;2.40;;
21825;SDS011;11075;47.944;11.776;2022-07-10T09:09:32;4.47;;;2.55;;
21825;SDS011;11075;47.944;11.776;2022-07-10T09:12:18;3.10;;;2.65;;
21825;SDS011;11075;47.944;11.776;2022-07-10T09:14:45;3.30;;;2.10;;
21825;SDS011;11075;47.944;11.776;2022-07-10T09:17:12;5.28;;;2.20;;
21825;SDS011;11075;47.944;11.776;2022-07-10T09:19:39;4.95;;;2.30;;
21825;SDS011;11075;47.944;11.776;2022-07-10T09:22:07;3.17;;;2.70;;
21825;SDS011;11075;47.944;11.776;2022-07-10T09:24:35;2.70;;;1.67;;
21825;SDS011;11075;47.944;11.776;2022-07-10T09:27:04;2.22;;;1.88;;
21825;SDS011;11075;47.944;11.776;2022-07-10T09:29:32;2.30;;;1.73;;
21825;SDS011;11075;47.944;11.776;2022-07-10T09:32:10;4.03;;;1.92;;
21825;SDS011;11075;47.944;11.776;2022-07-10T09:47:40;3.55;;;2.03;;
21825;SDS011;11075;47.944;11.776;2022-07-10T09:50:27;4.57;;;1.67;;
21825;SDS011;11075;47.944;11.776;2022-07-10T09:52:59;2.78;;;1.50;;
21825;SDS011;11075;47.944;11.776;2022-07-10T09:55:28;2.15;;;1.15;;
21825;SDS011;11075;47.944;11.776;2022-07-10T10:00:28;3.10;;;1.50;;
21825;SDS011;11075;47.944;11.776;2022-07-10T10:03:00;2.88;;;1.60;;
21825;SDS011;11075;47.944;11.776;2022-07-10T10:08:12;6.28;;;1.90;;
21825;SDS011;11075;47.944;11.776;2022-07-10T10:10:43;4.32;;;2.30;;
21825;SDS011;11075;47.944;11.776;2022-07-10T10:13:11;2.72;;;2.08;;
21825;SDS011;11075;47.944;11.776;2022-07-10T10:15:43;4.38;;;1.73;;
21825;SDS011;11075;47.944;11.776;2022-07-10T10:18:12;2.60;;;1.60;;
21825;SDS011;11075;47.944;11.776;2022-07-10T10:20:40;5.50;;;1.48;;
21825;SDS011;11075;47.944;11.776;2022-07-10T10:23:11;2.80;;;1.60;;
21825;SDS011;11075;47.944;11.776;2022-07-10T10:25:40;2.42;;;1.45;;
21825;SDS011;11075;47.944;11.776;2022-07-10T10:28:08;2.60;;;1.80;;
21825;SDS011;11075;47.944;11.776;2022-07-10T10:30:42;3.95;;;1.58;;
21825;SDS011;11075;47.944;11.776;2022-07-10T10:36:15;2.28;;;1.70;;
21825;SDS011;11075;47.944;11.776;2022-07-10T10:39:03;2.60;;;1.40;;
21825;SDS011;11075;47.944;11.776;2022-07-10T10:41:54;5.20;;;1.58;;
21825;SDS011;11075;47.944;11.776;2022-07-10T10:44:22;3.45;;;1.40;;
21825;SDS011;11075;47.944;11.776;2022-07-10T10:49:17;1.58;;;1.23;;
21825;SDS011;11075;47.944;11.776;2022-07-10T10:52:00;2.80;;;1.40;;
21825;SDS011;11075;47.944;11.776;2022-07-10T10:54:29;1.35;;;1.10;;
21825;SDS011;11075;47.944;11.776;2022-07-10T10:59:45;2.08;;;1.23;;
21825;SDS011;11075;47.944;11.776;2022-07-10T11:02:25;2.17;;;1.33;;
21825;SDS011;11075;47.944;11.776;2022-07-10T11:07:51;1.75;;;1.25;;
21825;SDS011;11075;47.944;11.776;2022-07-10T11:10:31;5.85;;;1.40;;
21825;SDS011;11075;47.944;11.776;2022-07-10T11:15:26;2.72;;;2.22;;
21825;SDS011;11075;47.944;11.776;2022-07-10T11:18:02;3.97;;;1.23;;
21825;SDS011;11075;47.944;11.776;2022-07-10T11:20:32;2.85;;;1.50;;
21825;SDS011;11075;47.944;11.776;2022-07-10T11:25:49;3.00;;;1.70;;
21825;SDS011;11075;47.944;11.776;2022-07-10T11:31:10;1.77;;;1.33;;
21825;SDS011;11075;47.944;11.776;2022-07-10T11:33:44;2.85;;;1.30;;
21825;SDS011;11075;47.944;11.776;2022-07-10T11:36:16;2.45;;;1.33;;
21825;SDS011;11075;47.944;11.776;2022-07-10T11:38:56;1.45;;;0.98;;
21825;SDS011;11075;47.944;11.776;2022-07-10T11:41:27;3.72;;;1.27;;
21825;SDS011;11075;47.944;11.776;2022-07-10T11:43:55;2.33;;;1.48;;
21825;SDS011;11075;47.944;11.776;2022-07-10T11:46:27;2.88;;;1.38;;
21825;SDS011;11075;47.944;11.776;2022-07-10T11:48:58;2.85;;;1.58;;
21825;SDS011;11075;47.944;11.776;2022-07-10T11:51:32;26.25;;;12.50;;
21825;SDS011;11075;47.944;11.776;2022-07-10T11:54:01;6.25;;;3.55;;
21825;SDS011;11075;47.944;11.776;2022-07-10T11:56:31;60.60;;;25.70;;
21825;SDS011;11075;47.944;11.776;2022-07-10T11:59:00;3.95;;;1.92;;
21825;SDS011;11075;47.944;11.776;2022-07-10T12:01:30;7.32;;;2.80;;
21825;SDS011;11075;47.944;11.776;2022-07-10T12:04:03;4.07;;;2.00;;
21825;SDS011;11075;47.944;11.776;2022-07-10T12:06:32;3.10;;;1.83;;
21825;SDS011;11075;47.944;11.776;2022-07-10T12:09:01;4.22;;;1.63;;
21825;SDS011;11075;47.944;11.776;2022-07-10T12:11:32;3.83;;;1.30;;
21825;SDS011;11075;47.944;11.776;2022-07-10T12:16:55;3.80;;;1.17;;
21825;SDS011;11075;47.944;11.776;2022-07-10T12:19:27;3.42;;;1.48;;
21825;SDS011;11075;47.944;11.776;2022-07-10T12:21:57;3.78;;;1.50;;
21825;SDS011;11075;47.944;11.776;2022-07-10T12:24:25;2.53;;;1.10;;
21825;SDS011;11075;47.944;11.776;2022-07-10T12:26:53;1.95;;;1.15;;
21825;SDS011;11075;47.944;11.776;2022-07-10T12:29:23;2.63;;;1.00;;
21825;SDS011;11075;47.944;11.776;2022-07-10T12:31:54;1.83;;;1.00;;
21825;SDS011;11075;47.944;11.776;2022-07-10T12:34:39;3.63;;;1.10;;
21825;SDS011;11075;47.944;11.776;2022-07-10T12:37:12;1.83;;;1.20;;
21825;SDS011;11075;47.944;11.776;2022-07-10T12:39:47;3.05;;;0.95;;
21825;SDS011;11075;47.944;11.776;2022-07-10T12:42:26;2.72;;;1.20;;
21825;SDS011;11075;47.944;11.776;2022-07-10T12:45:12;2.15;;;1.20;;
21825;SDS011;11075;47.944;11.776;2022-07-10T12:47:43;2.85;;;1.25;;
21825;SDS011;11075;47.944;11.776;2022-07-10T12:50:14;2.55;;;1.30;;
21825;SDS011;11075;47.944;11.776;2022-07-10T12:52:43;3.50;;;1.23;;
21825;SDS011;11075;47.944;11.776;2022-07-10T12:55:12;1.50;;;0.98;;
21825;SDS011;11075;47.944;11.776;2022-07-10T13:00:24;4.35;;;1.58;;
21825;SDS011;11075;47.944;11.776;2022-07-10T13:03:08;2.92;;;1.00;;
21825;SDS011;11075;47.944;11.776;2022-07-10T13:05:44;3.58;;;1.02;;
21825;SDS011;11075;47.944;11.776;2022-07-10T13:08:12;2.45;;;1.33;;
21825;SDS011;11075;47.944;11.776;2022-07-10T13:10:47;3.17;;;1.30;;
21825;SDS011;11075;47.944;11.776;2022-07-10T13:13:18;1.50;;;1.10;;
21825;SDS011;11075;47.944;11.776;2022-07-10T13:15:45;3.55;;;1.35;;
21825;SDS011;11075;47.944;11.776;2022-07-10T13:18:17;3.72;;;1.17;;
21825;SDS011;11075;47.944;11.776;2022-07-10T13:20:49;1.63;;;1.08;;
21825;SDS011;11075;47.944;11.776;2022-07-10T13:23:25;3.00;;;0.88;;
21825;SDS011;11075;47.944;11.776;2022-07-10T13:25:52;2.38;;;1.42;;
21825;SDS011;11075;47.944;11.776;2022-07-10T13:28:20;6.65;;;1.20;;
21825;SDS011;11075;47.944;11.776;2022-07-10T13:30:47;2.25;;;1.08;;
21825;SDS011;11075;47.944;11.776;2022-07-10T13:33:14;4.57;;;1.50;;
21825;SDS011;11075;47.944;11.776;2022-07-10T13:35:42;2.25;;;1.02;;
21825;SDS011;11075;47.944;11.776;2022-07-10T13:38:09;2.35;;;0.80;;
21825;SDS011;11075;47.944;11.776;2022-07-10T13:40:42;2.95;;;1.23;;
21825;SDS011;11075;47.944;11.776;2022-07-10T13:43:11;2.33;;;0.90;;
21825;SDS011;11075;47.944;11.776;2022-07-10T13:45:39;3.78;;;1.00;;
21825;SDS011;11075;47.944;11.776;2022-07-10T13:48:10;1.13;;;0.80;;
21825;SDS011;11075;47.944;11.776;2022-07-10T13:50:38;4.45;;;1.40;;
21825;SDS011;11075;47.944;11.776;2022-07-10T13:53:06;2.00;;;0.93;;
21825;SDS011;11075;47.944;11.776;2022-07-10T13:55:33;3.50;;;1.10;;
21825;SDS011;11075;47.944;11.776;2022-07-10T13:58:00;2.80;;;0.85;;
21825;SDS011;11075;47.944;11.776;2022-07-10T14:00:28;8.25;;;1.38;;
21825;SDS011;11075;47.944;11.776;2022-07-10T14:02:55;2.33;;;0.90;;
21825;SDS011;11075;47.944;11.776;2022-07-10T14:05:24;2.28;;;1.10;;
21825;SDS011;11075;47.944;11.776;2022-07-10T14:07:51;2.38;;;1.10;;
21825;SDS011;11075;47.944;11.776;2022-07-10T14:10:18;2.70;;;0.80;;
21825;SDS011;11075;47.944;11.776;2022-07-10T14:12:45;2.88;;;0.77;;
21825;SDS011;11075;47.944;11.776;2022-07-10T14:15:11;3.17;;;1.10;;
21825;SDS011;11075;47.944;11.776;2022-07-10T14:17:38;3.13;;;1.10;;
21825;SDS011;11075;47.944;11.776;2022-07-10T14:20:05;2.00;;;1.10;;
21825;SDS011;11075;47.944;11.776;2022-07-10T14:22:33;2.58;;;1.00;;
21825;SDS011;11075;47.944;11.776;2022-07-10T14:25:00;2.95;;;0.77;;
21825;SDS011;11075;47.944;11.776;2022-07-10T14:27:27;2.22;;;1.05;;
21825;SDS011;11075;47.944;11.776;2022-07-10T14:29:55;4.03;;;1.08;;
21825;SDS011;11075;47.944;11.776;2022-07-10T14:32:22;9.63;;;1.08;;
21825;SDS011;11075;47.944;11.776;2022-07-10T14:34:49;4.07;;;1.15;;
21825;SDS011;11075;47.944;11.776;2022-07-10T14:37:16;2.60;;;1.10;;
21825;SDS011;11075;47.944;11.776;2022-07-10T14:39:43;1.75;;;0.93;;
21825;SDS011;11075;47.944;11.776;2022-07-10T14:42:12;1.75;;;0.80;;
21825;SDS011;11075;47.944;11.776;2022-07-10T14:44:39;4.35;;;1.00;;
21825;SDS011;11075;47.944;11.776;2022-07-10T14:47:06;1.42;;;0.90;;
21825;SDS011;11075;47.944;11.776;2022-07-10T14:49:33;3.28;;;0.70;;
21825;SDS011;11075;47.944;11.776;2022-07-10T14:52:00;0.80;;;0.80;;
21825;SDS011;11075;47.944;11.776;2022-07-10T14:54:27;1.73;;;0.95;;
21825;SDS011;11075;47.944;11.776;2022-07-10T14:56:53;2.45;;;0.75;;
21825;SDS011;11075;47.944;11.776;2022-07-10T14:59:28;2.28;;;1.17;;
21825;SDS011;11075;47.944;11.776;2022-07-10T15:01:55;5.38;;;0.90;;
21825;SDS011;11075;47.944;11.776;2022-07-10T15:04:22;5.13;;;1.10;;
21825;SDS011;11075;47.944;11.776;2022-07-10T15:06:49;1.67;;;0.73;;
21825;SDS011;11075;47.944;11.776;2022-07-10T15:09:16;2.75;;;0.93;;
21825;SDS011;11075;47.944;11.776;2022-07-10T15:11:42;3.38;;;0.80;;
21825;SDS011;11075;47.944;11.776;2022-07-10T15:14:09;5.50;;;0.93;;
21825;SDS011;11075;47.944;11.776;2022-07-10T15:16:37;2.83;;;0.95;;
21825;SDS011;11075;47.944;11.776;2022-07-10T15:19:04;1.77;;;0.70;;
21825;SDS011;11075;47.944;11.776;2022-07-10T15:21:31;3.45;;;1.00;;
21825;SDS011;11075;47.944;11.776;2022-07-10T15:23:58;4.18;;;0.93;;
21825;SDS011;11075;47.944;11.776;2022-07-10T15:26:25;2.78;;;0.90;;